sensor_id;sensor_type;location;lat;lon;timestamp;P1;durP1;ratioP1;P2;durP2;ratioP2
31450;SDS011;18070;52.474;13.304;2023-09-12T00:01:17;18.48;;;12.05;;
31450;SDS011;18070;52.474;13.304;2023-09-12T00:03:43;17.48;;;11.02;;
31450;SDS011;18070;52.474;13.304;2023-09-12T00:06:09;19.45;;;11.68;;
31450;SDS011;18070;52.474;13.304;2023-09-12T00:08:35;15.52;;;10.93;;
31450;SDS011;18070;52.474;13.304;2023-09-12T00:11:02;19.38;;;11.93;;
31450;SDS011;18070;52.474;13.304;2023-09-12T00:13:29;15.80;;;9.77;;
31450;SDS011;18070;52.474;13.304;2023-09-12T00:15:56;20.58;;;10.98;;
31450;SDS011;18070;52.474;13.304;2023-09-12T00:18:22;13.60;;;10.27;;
31450;SDS011;18070;52.474;13.304;2023-09-12T00:20:49;14.65;;;10.30;;
31450;SDS011;18070;52.474;13.304;2023-09-12T00:23:15;15.77;;;10.25;;
31450;SDS011;18070;52.474;13.304;2023-09-12T00:25:41;15.93;;;11.27;;
31450;SDS011;18070;52.474;13.304;2023-09-12T00:28:07;17.02;;;10.45;;
31450;SDS011;18070;52.474;13.304;2023-09-12T00:30:33;20.27;;;10.82;;
31450;SDS011;18070;52.474;13.304;2023-09-12T00:32:59;16.73;;;11.30;;
31450;SDS011;18070;52.474;13.304;2023-09-12T00:35:25;18.13;;;11.52;;
31450;SDS011;18070;52.474;13.304;2023-09-12T00:37:51;17.42;;;10.88;;
31450;SDS011;18070;52.474;13.304;2023-09-12T00:40:17;16.42;;;10.93;;
31450;SDS011;18070;52.474;13.304;2023-09-12T00:42:43;15.35;;;11.07;;
31450;SDS011;18070;52.474;13.304;2023-09-12T00:45:09;21.30;;;10.63;;
31450;SDS011;18070;52.474;13.304;2023-09-12T00:47:35;15.65;;;10.88;;
31450;SDS011;18070;52.474;13.304;2023-09-12T00:50:02;18.48;;;11.05;;
31450;SDS011;18070;52.474;13.304;2023-09-12T00:52:29;16.73;;;11.02;;
31450;SDS011;18070;52.474;13.304;2023-09-12T00:54:56;14.15;;;11.25;;
31450;SDS011;18070;52.474;13.304;2023-09-12T00:57:23;17.60;;;11.07;;
31450;SDS011;18070;52.474;13.304;2023-09-12T00:59:49;14.88;;;10.30;;
31450;SDS011;18070;52.474;13.304;2023-09-12T01:02:17;19.33;;;10.98;;
31450;SDS011;18070;52.474;13.304;2023-09-12T01:04:43;19.02;;;11.15;;
31450;SDS011;18070;52.474;13.304;2023-09-12T01:07:09;17.40;;;10.85;;
31450;SDS011;18070;52.474;13.304;2023-09-12T01:09:36;15.25;;;10.70;;
31450;SDS011;18070;52.474;13.304;2023-09-12T01:12:02;19.40;;;11.65;;
31450;SDS011;18070;52.474;13.304;2023-09-12T01:14:28;16.67;;;10.52;;
31450;SDS011;18070;52.474;13.304;2023-09-12T01:16:55;17.98;;;11.43;;
31450;SDS011;18070;52.474;13.304;2023-09-12T01:19:21;16.25;;;10.95;;
31450;SDS011;18070;52.474;13.304;2023-09-12T01:24:34;17.92;;;10.32;;
31450;SDS011;18070;52.474;13.304;2023-09-12T01:29:38;19.70;;;12.13;;
31450;SDS011;18070;52.474;13.304;2023-09-12T01:32:05;19.15;;;11.68;;
31450;SDS011;18070;52.474;13.304;2023-09-12T01:34:31;17.17;;;11.35;;
31450;SDS011;18070;52.474;13.304;2023-09-12T01:36:58;16.58;;;11.15;;
31450;SDS011;18070;52.474;13.304;2023-09-12T01:39:24;16.00;;;11.20;;
31450;SDS011;18070;52.474;13.304;2023-09-12T01:41:50;16.23;;;11.52;;
31450;SDS011;18070;52.474;13.304;2023-09-12T01:44:17;17.60;;;11.15;;
31450;SDS011;18070;52.474;13.304;2023-09-12T01:46:43;14.65;;;10.43;;
31450;SDS011;18070;52.474;13.304;2023-09-12T01:49:09;20.45;;;11.65;;
31450;SDS011;18070;52.474;13.304;2023-09-12T01:51:36;15.27;;;11.52;;
31450;SDS011;18070;52.474;13.304;2023-09-12T01:54:03;17.48;;;10.80;;
31450;SDS011;18070;52.474;13.304;2023-09-12T01:56:29;20.48;;;12.18;;
31450;SDS011;18070;52.474;13.304;2023-09-12T01:58:56;17.10;;;11.15;;
31450;SDS011;18070;52.474;13.304;2023-09-12T02:01:22;17.80;;;11.25;;
31450;SDS011;18070;52.474;13.304;2023-09-12T02:03:51;17.92;;;11.43;;
31450;SDS011;18070;52.474;13.304;2023-09-12T02:06:18;22.95;;;11.60;;
31450;SDS011;18070;52.474;13.304;2023-09-12T02:08:44;15.88;;;11.15;;
31450;SDS011;18070;52.474;13.304;2023-09-12T02:11:10;15.52;;;11.90;;
31450;SDS011;18070;52.474;13.304;2023-09-12T02:13:36;15.68;;;11.38;;
31450;SDS011;18070;52.474;13.304;2023-09-12T02:16:02;16.85;;;11.25;;
31450;SDS011;18070;52.474;13.304;2023-09-12T02:18:28;17.38;;;12.30;;
31450;SDS011;18070;52.474;13.304;2023-09-12T02:20:54;16.88;;;12.25;;
31450;SDS011;18070;52.474;13.304;2023-09-12T02:23:21;15.98;;;11.27;;
31450;SDS011;18070;52.474;13.304;2023-09-12T02:25:47;19.50;;;11.20;;
31450;SDS011;18070;52.474;13.304;2023-09-12T02:28:13;15.50;;;11.93;;
31450;SDS011;18070;52.474;13.304;2023-09-12T02:30:39;17.45;;;11.93;;
31450;SDS011;18070;52.474;13.304;2023-09-12T02:33:05;14.10;;;10.65;;
31450;SDS011;18070;52.474;13.304;2023-09-12T02:35:31;16.80;;;12.93;;
31450;SDS011;18070;52.474;13.304;2023-09-12T02:37:57;14.25;;;11.40;;
31450;SDS011;18070;52.474;13.304;2023-09-12T02:40:24;15.00;;;11.73;;
31450;SDS011;18070;52.474;13.304;2023-09-12T02:42:50;18.58;;;11.88;;
31450;SDS011;18070;52.474;13.304;2023-09-12T02:45:16;16.70;;;11.50;;
31450;SDS011;18070;52.474;13.304;2023-09-12T02:47:42;18.17;;;12.10;;
31450;SDS011;18070;52.474;13.304;2023-09-12T02:50:08;20.45;;;11.98;;
31450;SDS011;18070;52.474;13.304;2023-09-12T02:52:35;19.73;;;12.45;;
31450;SDS011;18070;52.474;13.304;2023-09-12T02:55:01;17.65;;;12.18;;
31450;SDS011;18070;52.474;13.304;2023-09-12T02:57:27;16.80;;;11.73;;
31450;SDS011;18070;52.474;13.304;2023-09-12T02:59:53;20.25;;;12.50;;
31450;SDS011;18070;52.474;13.304;2023-09-12T03:02:19;19.65;;;13.00;;
31450;SDS011;18070;52.474;13.304;2023-09-12T03:04:45;17.50;;;12.02;;
31450;SDS011;18070;52.474;13.304;2023-09-12T03:07:11;14.95;;;12.20;;
31450;SDS011;18070;52.474;13.304;2023-09-12T03:09:38;16.40;;;11.57;;
31450;SDS011;18070;52.474;13.304;2023-09-12T03:12:06;16.88;;;11.30;;
31450;SDS011;18070;52.474;13.304;2023-09-12T03:14:33;18.50;;;12.38;;
31450;SDS011;18070;52.474;13.304;2023-09-12T03:16:59;16.45;;;11.35;;
31450;SDS011;18070;52.474;13.304;2023-09-12T03:19:25;14.90;;;12.00;;
31450;SDS011;18070;52.474;13.304;2023-09-12T03:21:51;16.27;;;12.18;;
31450;SDS011;18070;52.474;13.304;2023-09-12T03:24:17;17.50;;;12.35;;
31450;SDS011;18070;52.474;13.304;2023-09-12T03:26:43;19.52;;;11.85;;
31450;SDS011;18070;52.474;13.304;2023-09-12T03:29:09;18.10;;;12.85;;
31450;SDS011;18070;52.474;13.304;2023-09-12T03:31:36;19.02;;;11.93;;
31450;SDS011;18070;52.474;13.304;2023-09-12T03:34:02;19.08;;;11.90;;
31450;SDS011;18070;52.474;13.304;2023-09-12T03:36:28;19.00;;;12.68;;
31450;SDS011;18070;52.474;13.304;2023-09-12T03:38:54;18.35;;;12.27;;
31450;SDS011;18070;52.474;13.304;2023-09-12T03:41:20;21.95;;;12.18;;
31450;SDS011;18070;52.474;13.304;2023-09-12T03:43:50;16.40;;;12.55;;
31450;SDS011;18070;52.474;13.304;2023-09-12T03:46:16;22.08;;;13.02;;
31450;SDS011;18070;52.474;13.304;2023-09-12T03:48:42;18.92;;;12.27;;
31450;SDS011;18070;52.474;13.304;2023-09-12T03:51:08;16.45;;;12.10;;
31450;SDS011;18070;52.474;13.304;2023-09-12T03:53:34;17.20;;;12.00;;
31450;SDS011;18070;52.474;13.304;2023-09-12T03:56:00;17.50;;;12.40;;
31450;SDS011;18070;52.474;13.304;2023-09-12T03:58:26;20.15;;;12.63;;
31450;SDS011;18070;52.474;13.304;2023-09-12T04:00:52;19.00;;;12.20;;
31450;SDS011;18070;52.474;13.304;2023-09-12T04:03:18;19.08;;;12.15;;
31450;SDS011;18070;52.474;13.304;2023-09-12T04:05:46;15.48;;;12.25;;
31450;SDS011;18070;52.474;13.304;2023-09-12T04:08:12;18.48;;;12.38;;
31450;SDS011;18070;52.474;13.304;2023-09-12T04:10:38;16.13;;;11.60;;
31450;SDS011;18070;52.474;13.304;2023-09-12T04:13:04;19.77;;;12.13;;
31450;SDS011;18070;52.474;13.304;2023-09-12T04:15:30;17.75;;;13.02;;
31450;SDS011;18070;52.474;13.304;2023-09-12T04:17:56;26.98;;;12.98;;
31450;SDS011;18070;52.474;13.304;2023-09-12T04:20:22;17.20;;;12.38;;
31450;SDS011;18070;52.474;13.304;2023-09-12T04:22:48;16.95;;;12.55;;
31450;SDS011;18070;52.474;13.304;2023-09-12T04:25:15;17.42;;;12.70;;
31450;SDS011;18070;52.474;13.304;2023-09-12T04:27:41;16.65;;;12.20;;
31450;SDS011;18070;52.474;13.304;2023-09-12T04:30:07;18.55;;;13.82;;
31450;SDS011;18070;52.474;13.304;2023-09-12T04:32:34;16.42;;;13.10;;
31450;SDS011;18070;52.474;13.304;2023-09-12T04:35:00;17.05;;;13.15;;
31450;SDS011;18070;52.474;13.304;2023-09-12T04:37:26;18.25;;;13.48;;
31450;SDS011;18070;52.474;13.304;2023-09-12T04:39:52;19.48;;;13.48;;
31450;SDS011;18070;52.474;13.304;2023-09-12T04:42:18;16.30;;;12.10;;
31450;SDS011;18070;52.474;13.304;2023-09-12T04:44:44;18.50;;;11.95;;
31450;SDS011;18070;52.474;13.304;2023-09-12T04:47:10;18.45;;;12.90;;
31450;SDS011;18070;52.474;13.304;2023-09-12T04:49:36;19.52;;;12.93;;
31450;SDS011;18070;52.474;13.304;2023-09-12T04:52:02;23.65;;;13.30;;
31450;SDS011;18070;52.474;13.304;2023-09-12T04:54:28;23.38;;;13.02;;
31450;SDS011;18070;52.474;13.304;2023-09-12T04:56:54;19.70;;;12.95;;
31450;SDS011;18070;52.474;13.304;2023-09-12T04:59:20;24.58;;;12.65;;
31450;SDS011;18070;52.474;13.304;2023-09-12T05:01:47;21.00;;;12.65;;
31450;SDS011;18070;52.474;13.304;2023-09-12T05:04:13;27.15;;;13.07;;
31450;SDS011;18070;52.474;13.304;2023-09-12T05:06:39;19.63;;;11.30;;
31450;SDS011;18070;52.474;13.304;2023-09-12T05:09:05;27.80;;;12.85;;
31450;SDS011;18070;52.474;13.304;2023-09-12T05:11:33;22.30;;;12.73;;
31450;SDS011;18070;52.474;13.304;2023-09-12T05:14:00;24.20;;;12.10;;
31450;SDS011;18070;52.474;13.304;2023-09-12T05:16:28;22.27;;;12.68;;
31450;SDS011;18070;52.474;13.304;2023-09-12T05:18:54;23.13;;;12.15;;
31450;SDS011;18070;52.474;13.304;2023-09-12T05:21:20;23.95;;;12.80;;
31450;SDS011;18070;52.474;13.304;2023-09-12T05:23:46;24.48;;;13.10;;
31450;SDS011;18070;52.474;13.304;2023-09-12T05:26:12;20.20;;;12.07;;
31450;SDS011;18070;52.474;13.304;2023-09-12T05:28:39;21.23;;;12.10;;
31450;SDS011;18070;52.474;13.304;2023-09-12T05:31:05;20.80;;;12.40;;
31450;SDS011;18070;52.474;13.304;2023-09-12T05:33:31;23.10;;;12.82;;
31450;SDS011;18070;52.474;13.304;2023-09-12T05:35:57;26.30;;;12.35;;
31450;SDS011;18070;52.474;13.304;2023-09-12T05:38:23;23.40;;;12.80;;
31450;SDS011;18070;52.474;13.304;2023-09-12T05:40:49;28.50;;;12.80;;
31450;SDS011;18070;52.474;13.304;2023-09-12T05:43:16;46.08;;;15.20;;
31450;SDS011;18070;52.474;13.304;2023-09-12T05:45:42;41.92;;;15.18;;
31450;SDS011;18070;52.474;13.304;2023-09-12T05:48:08;20.58;;;12.38;;
31450;SDS011;18070;52.474;13.304;2023-09-12T05:50:34;21.42;;;12.88;;
31450;SDS011;18070;52.474;13.304;2023-09-12T05:53:01;27.60;;;13.02;;
31450;SDS011;18070;52.474;13.304;2023-09-12T05:55:27;20.42;;;12.02;;
31450;SDS011;18070;52.474;13.304;2023-09-12T05:57:53;17.00;;;12.25;;
31450;SDS011;18070;52.474;13.304;2023-09-12T06:00:19;18.65;;;12.52;;
31450;SDS011;18070;52.474;13.304;2023-09-12T06:02:46;20.30;;;13.40;;
31450;SDS011;18070;52.474;13.304;2023-09-12T06:05:12;25.77;;;12.85;;
31450;SDS011;18070;52.474;13.304;2023-09-12T06:07:40;16.27;;;11.65;;
31450;SDS011;18070;52.474;13.304;2023-09-12T06:10:07;25.13;;;13.55;;
31450;SDS011;18070;52.474;13.304;2023-09-12T06:12:33;24.60;;;12.98;;
31450;SDS011;18070;52.474;13.304;2023-09-12T06:15:01;23.33;;;12.88;;
31450;SDS011;18070;52.474;13.304;2023-09-12T06:17:27;24.90;;;12.27;;
31450;SDS011;18070;52.474;13.304;2023-09-12T06:19:54;28.80;;;12.85;;
31450;SDS011;18070;52.474;13.304;2023-09-12T06:22:20;33.45;;;12.93;;
31450;SDS011;18070;52.474;13.304;2023-09-12T06:24:47;21.48;;;11.45;;
31450;SDS011;18070;52.474;13.304;2023-09-12T06:27:13;23.92;;;11.95;;
31450;SDS011;18070;52.474;13.304;2023-09-12T06:29:44;24.40;;;11.60;;
31450;SDS011;18070;52.474;13.304;2023-09-12T06:32:10;19.67;;;12.13;;
31450;SDS011;18070;52.474;13.304;2023-09-12T06:34:37;20.88;;;12.73;;
31450;SDS011;18070;52.474;13.304;2023-09-12T06:37:03;21.58;;;11.32;;
31450;SDS011;18070;52.474;13.304;2023-09-12T06:39:29;21.50;;;11.27;;
31450;SDS011;18070;52.474;13.304;2023-09-12T06:41:55;19.50;;;10.63;;
31450;SDS011;18070;52.474;13.304;2023-09-12T06:44:21;22.58;;;10.75;;
31450;SDS011;18070;52.474;13.304;2023-09-12T06:46:47;24.08;;;11.07;;
31450;SDS011;18070;52.474;13.304;2023-09-12T06:49:13;21.05;;;10.95;;
31450;SDS011;18070;52.474;13.304;2023-09-12T06:51:39;25.45;;;11.00;;
31450;SDS011;18070;52.474;13.304;2023-09-12T06:54:05;21.98;;;9.82;;
31450;SDS011;18070;52.474;13.304;2023-09-12T06:56:31;14.55;;;9.15;;
31450;SDS011;18070;52.474;13.304;2023-09-12T06:59:02;15.75;;;8.90;;
31450;SDS011;18070;52.474;13.304;2023-09-12T07:01:28;20.98;;;9.38;;
31450;SDS011;18070;52.474;13.304;2023-09-12T07:03:54;15.50;;;9.20;;
31450;SDS011;18070;52.474;13.304;2023-09-12T07:06:21;22.73;;;9.75;;
31450;SDS011;18070;52.474;13.304;2023-09-12T07:08:47;28.80;;;10.65;;
31450;SDS011;18070;52.474;13.304;2023-09-12T07:11:13;29.60;;;9.48;;
31450;SDS011;18070;52.474;13.304;2023-09-12T07:13:39;34.47;;;10.55;;
31450;SDS011;18070;52.474;13.304;2023-09-12T07:16:06;23.25;;;9.02;;
31450;SDS011;18070;52.474;13.304;2023-09-12T07:18:32;19.45;;;8.95;;
31450;SDS011;18070;52.474;13.304;2023-09-12T07:20:59;22.40;;;8.40;;
31450;SDS011;18070;52.474;13.304;2023-09-12T07:23:25;18.85;;;8.45;;
31450;SDS011;18070;52.474;13.304;2023-09-12T07:25:51;18.35;;;8.65;;
31450;SDS011;18070;52.474;13.304;2023-09-12T07:28:18;17.00;;;7.72;;
31450;SDS011;18070;52.474;13.304;2023-09-12T07:30:47;20.05;;;7.32;;
31450;SDS011;18070;52.474;13.304;2023-09-12T07:33:14;21.67;;;7.53;;
31450;SDS011;18070;52.474;13.304;2023-09-12T07:35:40;18.95;;;7.47;;
31450;SDS011;18070;52.474;13.304;2023-09-12T07:38:06;19.25;;;7.55;;
31450;SDS011;18070;52.474;13.304;2023-09-12T07:40:32;21.83;;;7.68;;
31450;SDS011;18070;52.474;13.304;2023-09-12T07:42:58;21.20;;;7.43;;
31450;SDS011;18070;52.474;13.304;2023-09-12T07:45:24;15.63;;;6.70;;
31450;SDS011;18070;52.474;13.304;2023-09-12T07:47:50;18.50;;;6.82;;
31450;SDS011;18070;52.474;13.304;2023-09-12T07:50:16;19.27;;;6.78;;
31450;SDS011;18070;52.474;13.304;2023-09-12T07:52:42;14.23;;;6.35;;
31450;SDS011;18070;52.474;13.304;2023-09-12T07:55:08;21.27;;;6.72;;
31450;SDS011;18070;52.474;13.304;2023-09-12T07:57:35;16.77;;;7.53;;
31450;SDS011;18070;52.474;13.304;2023-09-12T08:00:02;17.20;;;7.05;;
31450;SDS011;18070;52.474;13.304;2023-09-12T08:02:30;13.75;;;6.68;;
31450;SDS011;18070;52.474;13.304;2023-09-12T08:04:56;20.98;;;6.90;;
31450;SDS011;18070;52.474;13.304;2023-09-12T08:07:22;19.52;;;6.55;;
31450;SDS011;18070;52.474;13.304;2023-09-12T08:12:14;29.42;;;7.20;;
31450;SDS011;18070;52.474;13.304;2023-09-12T08:14:40;19.90;;;5.80;;
31450;SDS011;18070;52.474;13.304;2023-09-12T08:17:06;23.65;;;6.40;;
31450;SDS011;18070;52.474;13.304;2023-09-12T08:19:32;16.30;;;6.03;;
31450;SDS011;18070;52.474;13.304;2023-09-12T08:21:58;22.30;;;6.30;;
31450;SDS011;18070;52.474;13.304;2023-09-12T08:24:24;24.88;;;6.72;;
31450;SDS011;18070;52.474;13.304;2023-09-12T08:26:50;14.82;;;6.13;;
31450;SDS011;18070;52.474;13.304;2023-09-12T08:29:16;20.45;;;6.30;;
31450;SDS011;18070;52.474;13.304;2023-09-12T08:31:42;19.40;;;5.97;;
31450;SDS011;18070;52.474;13.304;2023-09-12T08:34:09;19.35;;;5.60;;
31450;SDS011;18070;52.474;13.304;2023-09-12T08:36:36;18.38;;;6.00;;
31450;SDS011;18070;52.474;13.304;2023-09-12T08:39:02;14.40;;;5.40;;
31450;SDS011;18070;52.474;13.304;2023-09-12T08:41:29;21.20;;;6.07;;
31450;SDS011;18070;52.474;13.304;2023-09-12T08:43:55;18.10;;;5.82;;
31450;SDS011;18070;52.474;13.304;2023-09-12T08:46:21;30.30;;;6.13;;
31450;SDS011;18070;52.474;13.304;2023-09-12T08:48:49;21.35;;;6.45;;
31450;SDS011;18070;52.474;13.304;2023-09-12T08:51:15;19.85;;;6.07;;
31450;SDS011;18070;52.474;13.304;2023-09-12T08:53:41;14.88;;;5.45;;
31450;SDS011;18070;52.474;13.304;2023-09-12T08:56:08;24.95;;;6.72;;
31450;SDS011;18070;52.474;13.304;2023-09-12T08:58:35;20.40;;;5.97;;
31450;SDS011;18070;52.474;13.304;2023-09-12T09:01:01;18.95;;;6.20;;
31450;SDS011;18070;52.474;13.304;2023-09-12T09:03:28;28.92;;;6.47;;
31450;SDS011;18070;52.474;13.304;2023-09-12T09:05:54;20.83;;;5.70;;
31450;SDS011;18070;52.474;13.304;2023-09-12T09:08:21;21.70;;;5.15;;
31450;SDS011;18070;52.474;13.304;2023-09-12T09:10:55;25.45;;;6.30;;
31450;SDS011;18070;52.474;13.304;2023-09-12T09:13:21;27.50;;;6.00;;
31450;SDS011;18070;52.474;13.304;2023-09-12T09:15:47;22.23;;;5.68;;
31450;SDS011;18070;52.474;13.304;2023-09-12T09:18:13;23.95;;;5.68;;
31450;SDS011;18070;52.474;13.304;2023-09-12T09:20:39;19.27;;;4.93;;
31450;SDS011;18070;52.474;13.304;2023-09-12T09:23:06;16.35;;;5.50;;
31450;SDS011;18070;52.474;13.304;2023-09-12T09:25:36;21.77;;;5.88;;
31450;SDS011;18070;52.474;13.304;2023-09-12T09:28:03;22.20;;;6.55;;
31450;SDS011;18070;52.474;13.304;2023-09-12T09:30:43;23.13;;;7.25;;
31450;SDS011;18070;52.474;13.304;2023-09-12T09:33:10;21.20;;;7.07;;
31450;SDS011;18070;52.474;13.304;2023-09-12T09:35:36;33.13;;;7.18;;
31450;SDS011;18070;52.474;13.304;2023-09-12T09:38:03;30.02;;;7.15;;
31450;SDS011;18070;52.474;13.304;2023-09-12T09:40:31;18.00;;;7.45;;
31450;SDS011;18070;52.474;13.304;2023-09-12T09:43:00;20.00;;;7.38;;
31450;SDS011;18070;52.474;13.304;2023-09-12T09:45:27;26.15;;;7.28;;
31450;SDS011;18070;52.474;13.304;2023-09-12T09:47:56;19.30;;;7.95;;
31450;SDS011;18070;52.474;13.304;2023-09-12T09:50:23;22.33;;;8.23;;
31450;SDS011;18070;52.474;13.304;2023-09-12T09:52:53;26.67;;;8.20;;
31450;SDS011;18070;52.474;13.304;2023-09-12T09:55:20;25.75;;;8.23;;
31450;SDS011;18070;52.474;13.304;2023-09-12T09:57:46;16.83;;;7.35;;
31450;SDS011;18070;52.474;13.304;2023-09-12T10:00:13;19.42;;;7.90;;
31450;SDS011;18070;52.474;13.304;2023-09-12T10:02:40;30.02;;;8.75;;
31450;SDS011;18070;52.474;13.304;2023-09-12T10:05:06;24.48;;;8.07;;
31450;SDS011;18070;52.474;13.304;2023-09-12T10:07:37;19.40;;;8.45;;
31450;SDS011;18070;52.474;13.304;2023-09-12T10:10:03;27.63;;;8.40;;
31450;SDS011;18070;52.474;13.304;2023-09-12T10:12:36;192.70;;;22.33;;
31450;SDS011;18070;52.474;13.304;2023-09-12T10:15:02;22.15;;;7.63;;
31450;SDS011;18070;52.474;13.304;2023-09-12T10:17:35;22.30;;;7.75;;
31450;SDS011;18070;52.474;13.304;2023-09-12T10:20:02;31.35;;;7.55;;
31450;SDS011;18070;52.474;13.304;2023-09-12T10:22:34;28.48;;;7.03;;
31450;SDS011;18070;52.474;13.304;2023-09-12T10:25:01;24.20;;;7.97;;
31450;SDS011;18070;52.474;13.304;2023-09-12T10:27:27;24.55;;;7.70;;
31450;SDS011;18070;52.474;13.304;2023-09-12T10:29:55;22.48;;;8.43;;
31450;SDS011;18070;52.474;13.304;2023-09-12T10:32:24;17.33;;;8.40;;
31450;SDS011;18070;52.474;13.304;2023-09-12T10:34:52;23.05;;;7.55;;
31450;SDS011;18070;52.474;13.304;2023-09-12T10:37:19;30.73;;;8.13;;
31450;SDS011;18070;52.474;13.304;2023-09-12T10:39:46;26.80;;;7.63;;
31450;SDS011;18070;52.474;13.304;2023-09-12T10:42:13;28.27;;;8.48;;
31450;SDS011;18070;52.474;13.304;2023-09-12T10:44:39;26.98;;;7.75;;
31450;SDS011;18070;52.474;13.304;2023-09-12T10:47:05;20.35;;;7.15;;
31450;SDS011;18070;52.474;13.304;2023-09-12T10:49:32;26.17;;;6.53;;
31450;SDS011;18070;52.474;13.304;2023-09-12T10:51:58;23.23;;;7.57;;
31450;SDS011;18070;52.474;13.304;2023-09-12T10:54:25;24.10;;;6.80;;
31450;SDS011;18070;52.474;13.304;2023-09-12T10:57:04;27.70;;;7.50;;
31450;SDS011;18070;52.474;13.304;2023-09-12T10:59:30;22.77;;;7.47;;
31450;SDS011;18070;52.474;13.304;2023-09-12T11:02:47;27.10;;;7.47;;
31450;SDS011;18070;52.474;13.304;2023-09-12T11:04:48;25.75;;;7.28;;
31450;SDS011;18070;52.474;13.304;2023-09-12T11:12:43;23.65;;;7.65;;
31450;SDS011;18070;52.474;13.304;2023-09-12T11:15:10;17.85;;;6.18;;
31450;SDS011;18070;52.474;13.304;2023-09-12T11:17:39;17.83;;;7.38;;
31450;SDS011;18070;52.474;13.304;2023-09-12T11:20:06;18.33;;;7.63;;
31450;SDS011;18070;52.474;13.304;2023-09-12T11:22:44;22.25;;;7.63;;
31450;SDS011;18070;52.474;13.304;2023-09-12T11:25:21;13.10;;;6.60;;
31450;SDS011;18070;52.474;13.304;2023-09-12T11:30:26;16.92;;;6.00;;
31450;SDS011;18070;52.474;13.304;2023-09-12T11:32:56;13.95;;;5.65;;
31450;SDS011;18070;52.474;13.304;2023-09-12T11:35:23;15.05;;;5.55;;
31450;SDS011;18070;52.474;13.304;2023-09-12T11:37:58;14.27;;;6.43;;
31450;SDS011;18070;52.474;13.304;2023-09-12T11:40:26;18.38;;;6.32;;
31450;SDS011;18070;52.474;13.304;2023-09-12T11:42:52;15.85;;;5.57;;
31450;SDS011;18070;52.474;13.304;2023-09-12T11:45:19;14.73;;;5.38;;
31450;SDS011;18070;52.474;13.304;2023-09-12T11:47:46;20.83;;;5.35;;
31450;SDS011;18070;52.474;13.304;2023-09-12T11:53:00;18.25;;;6.20;;
31450;SDS011;18070;52.474;13.304;2023-09-12T11:55:26;18.75;;;5.78;;
31450;SDS011;18070;52.474;13.304;2023-09-12T11:57:55;15.55;;;5.70;;
31450;SDS011;18070;52.474;13.304;2023-09-12T12:00:21;17.58;;;5.85;;
31450;SDS011;18070;52.474;13.304;2023-09-12T12:02:47;12.65;;;6.05;;
31450;SDS011;18070;52.474;13.304;2023-09-12T12:05:13;10.60;;;5.88;;
31450;SDS011;18070;52.474;13.304;2023-09-12T12:07:39;15.70;;;5.88;;
31450;SDS011;18070;52.474;13.304;2023-09-12T12:10:07;14.70;;;5.80;;
31450;SDS011;18070;52.474;13.304;2023-09-12T12:12:33;10.10;;;5.55;;
31450;SDS011;18070;52.474;13.304;2023-09-12T12:15:00;24.35;;;6.50;;
31450;SDS011;18070;52.474;13.304;2023-09-12T12:17:26;23.58;;;6.20;;
31450;SDS011;18070;52.474;13.304;2023-09-12T12:19:52;29.67;;;6.40;;
31450;SDS011;18070;52.474;13.304;2023-09-12T12:22:19;20.13;;;6.32;;
31450;SDS011;18070;52.474;13.304;2023-09-12T12:24:45;23.50;;;6.47;;
31450;SDS011;18070;52.474;13.304;2023-09-12T12:27:14;12.60;;;5.25;;
31450;SDS011;18070;52.474;13.304;2023-09-12T12:29:40;12.02;;;5.53;;
31450;SDS011;18070;52.474;13.304;2023-09-12T12:32:07;21.77;;;6.55;;
31450;SDS011;18070;52.474;13.304;2023-09-12T12:34:34;18.05;;;6.45;;
31450;SDS011;18070;52.474;13.304;2023-09-12T12:37:01;9.73;;;5.85;;
31450;SDS011;18070;52.474;13.304;2023-09-12T12:39:27;12.00;;;5.93;;
31450;SDS011;18070;52.474;13.304;2023-09-12T12:41:53;12.98;;;5.57;;
31450;SDS011;18070;52.474;13.304;2023-09-12T12:44:19;13.07;;;6.25;;
31450;SDS011;18070;52.474;13.304;2023-09-12T12:46:52;6.35;;;5.20;;
31450;SDS011;18070;52.474;13.304;2023-09-12T12:51:45;9.80;;;5.90;;
31450;SDS011;18070;52.474;13.304;2023-09-12T12:54:11;12.48;;;6.28;;
31450;SDS011;18070;52.474;13.304;2023-09-12T12:56:38;16.17;;;5.95;;
31450;SDS011;18070;52.474;13.304;2023-09-12T12:59:04;13.65;;;5.65;;
31450;SDS011;18070;52.474;13.304;2023-09-12T13:01:37;17.08;;;5.57;;
31450;SDS011;18070;52.474;13.304;2023-09-12T13:04:07;14.38;;;6.20;;
31450;SDS011;18070;52.474;13.304;2023-09-12T13:06:34;14.82;;;5.70;;
31450;SDS011;18070;52.474;13.304;2023-09-12T13:09:01;20.38;;;6.10;;
31450;SDS011;18070;52.474;13.304;2023-09-12T13:11:29;16.42;;;6.40;;
31450;SDS011;18070;52.474;13.304;2023-09-12T13:13:55;15.48;;;5.70;;
31450;SDS011;18070;52.474;13.304;2023-09-12T13:16:21;12.95;;;6.15;;
31450;SDS011;18070;52.474;13.304;2023-09-12T13:18:48;16.63;;;5.90;;
31450;SDS011;18070;52.474;13.304;2023-09-12T13:21:14;24.98;;;7.13;;
31450;SDS011;18070;52.474;13.304;2023-09-12T13:23:40;13.90;;;6.88;;
31450;SDS011;18070;52.474;13.304;2023-09-12T13:26:09;12.35;;;5.90;;
31450;SDS011;18070;52.474;13.304;2023-09-12T13:28:35;14.45;;;6.07;;
31450;SDS011;18070;52.474;13.304;2023-09-12T13:31:01;39.75;;;8.50;;
31450;SDS011;18070;52.474;13.304;2023-09-12T13:33:28;21.92;;;6.03;;
31450;SDS011;18070;52.474;13.304;2023-09-12T13:35:54;12.68;;;6.13;;
31450;SDS011;18070;52.474;13.304;2023-09-12T13:38:20;15.48;;;6.13;;
31450;SDS011;18070;52.474;13.304;2023-09-12T13:40:48;15.60;;;5.90;;
31450;SDS011;18070;52.474;13.304;2023-09-12T13:43:15;14.07;;;6.30;;
31450;SDS011;18070;52.474;13.304;2023-09-12T13:45:41;17.25;;;6.35;;
31450;SDS011;18070;52.474;13.304;2023-09-12T13:48:07;19.65;;;6.60;;
31450;SDS011;18070;52.474;13.304;2023-09-12T13:50:33;17.55;;;5.93;;
31450;SDS011;18070;52.474;13.304;2023-09-12T13:53:01;13.35;;;5.80;;
31450;SDS011;18070;52.474;13.304;2023-09-12T13:55:33;20.02;;;6.03;;
31450;SDS011;18070;52.474;13.304;2023-09-12T13:58:01;17.45;;;6.90;;
31450;SDS011;18070;52.474;13.304;2023-09-12T14:00:27;17.30;;;6.10;;
31450;SDS011;18070;52.474;13.304;2023-09-12T14:02:53;18.20;;;5.85;;
31450;SDS011;18070;52.474;13.304;2023-09-12T14:05:19;15.38;;;5.60;;
31450;SDS011;18070;52.474;13.304;2023-09-12T14:07:45;20.15;;;5.93;;
31450;SDS011;18070;52.474;13.304;2023-09-12T14:10:12;12.52;;;5.43;;
31450;SDS011;18070;52.474;13.304;2023-09-12T14:12:39;26.55;;;6.95;;
31450;SDS011;18070;52.474;13.304;2023-09-12T14:15:05;13.85;;;5.75;;
31450;SDS011;18070;52.474;13.304;2023-09-12T14:17:31;16.70;;;6.80;;
31450;SDS011;18070;52.474;13.304;2023-09-12T14:19:57;25.33;;;6.32;;
31450;SDS011;18070;52.474;13.304;2023-09-12T14:22:24;23.75;;;5.50;;
31450;SDS011;18070;52.474;13.304;2023-09-12T14:24:50;28.80;;;6.35;;
31450;SDS011;18070;52.474;13.304;2023-09-12T14:27:16;20.63;;;5.68;;
31450;SDS011;18070;52.474;13.304;2023-09-12T14:29:42;22.13;;;6.22;;
31450;SDS011;18070;52.474;13.304;2023-09-12T14:32:13;12.38;;;5.57;;
31450;SDS011;18070;52.474;13.304;2023-09-12T14:34:39;17.48;;;5.30;;